sensor_id;sensor_type;location;lat;lon;timestamp;P1;durP1;ratioP1;P2;durP2;ratioP2
787;SDS011;16074;42.708;23.312;2023-09-18T00:01:00;28.37;;;25.47;;
787;SDS011;16074;42.708;23.312;2023-09-18T00:03:28;29.93;;;26.93;;
787;SDS011;16074;42.708;23.312;2023-09-18T00:05:56;33.20;;;28.53;;
787;SDS011;16074;42.708;23.312;2023-09-18T00:08:25;30.33;;;27.33;;
787;SDS011;16074;42.708;23.312;2023-09-18T00:10:55;32.47;;;28.90;;
787;SDS011;16074;42.708;23.312;2023-09-18T00:13:23;30.43;;;27.17;;
787;SDS011;16074;42.708;23.312;2023-09-18T00:15:53;31.83;;;28.43;;
787;SDS011;16074;42.708;23.312;2023-09-18T00:18:22;30.47;;;27.43;;
787;SDS011;16074;42.708;23.312;2023-09-18T00:20:51;31.47;;;28.03;;
787;SDS011;16074;42.708;23.312;2023-09-18T00:23:21;31.20;;;27.83;;
787;SDS011;16074;42.708;23.312;2023-09-18T00:25:49;28.47;;;25.70;;
787;SDS011;16074;42.708;23.312;2023-09-18T00:28:19;30.30;;;27.30;;
787;SDS011;16074;42.708;23.312;2023-09-18T00:30:49;30.70;;;27.80;;
787;SDS011;16074;42.708;23.312;2023-09-18T00:33:17;30.20;;;27.20;;
787;SDS011;16074;42.708;23.312;2023-09-18T00:35:47;31.40;;;28.10;;
787;SDS011;16074;42.708;23.312;2023-09-18T00:38:15;29.40;;;26.57;;
787;SDS011;16074;42.708;23.312;2023-09-18T00:40:44;29.27;;;26.27;;
787;SDS011;16074;42.708;23.312;2023-09-18T00:43:12;31.73;;;28.50;;
787;SDS011;16074;42.708;23.312;2023-09-18T00:45:44;32.07;;;28.87;;
787;SDS011;16074;42.708;23.312;2023-09-18T00:48:13;30.83;;;27.73;;
787;SDS011;16074;42.708;23.312;2023-09-18T00:50:43;31.17;;;27.87;;
787;SDS011;16074;42.708;23.312;2023-09-18T00:53:13;29.77;;;25.90;;
787;SDS011;16074;42.708;23.312;2023-09-18T00:55:44;27.13;;;24.53;;
787;SDS011;16074;42.708;23.312;2023-09-18T00:58:13;25.30;;;22.93;;
787;SDS011;16074;42.708;23.312;2023-09-18T01:00:44;24.33;;;22.00;;
787;SDS011;16074;42.708;23.312;2023-09-18T01:03:12;25.53;;;22.20;;
787;SDS011;16074;42.708;23.312;2023-09-18T01:05:45;23.73;;;21.50;;
787;SDS011;16074;42.708;23.312;2023-09-18T01:08:13;22.13;;;19.97;;
787;SDS011;16074;42.708;23.312;2023-09-18T01:10:44;23.93;;;21.53;;
787;SDS011;16074;42.708;23.312;2023-09-18T01:13:18;22.93;;;20.50;;
787;SDS011;16074;42.708;23.312;2023-09-18T01:15:54;21.30;;;19.33;;
787;SDS011;16074;42.708;23.312;2023-09-18T01:18:27;21.83;;;19.83;;
787;SDS011;16074;42.708;23.312;2023-09-18T01:20:56;21.80;;;19.70;;
787;SDS011;16074;42.708;23.312;2023-09-18T01:23:25;22.57;;;20.53;;
787;SDS011;16074;42.708;23.312;2023-09-18T01:25:54;22.53;;;20.27;;
787;SDS011;16074;42.708;23.312;2023-09-18T01:28:22;23.80;;;18.00;;
787;SDS011;16074;42.708;23.312;2023-09-18T01:30:50;19.73;;;17.80;;
787;SDS011;16074;42.708;23.312;2023-09-18T01:33:20;19.20;;;17.40;;
787;SDS011;16074;42.708;23.312;2023-09-18T01:35:49;19.80;;;18.00;;
787;SDS011;16074;42.708;23.312;2023-09-18T01:38:21;19.20;;;17.37;;
787;SDS011;16074;42.708;23.312;2023-09-18T01:40:52;21.40;;;19.47;;
787;SDS011;16074;42.708;23.312;2023-09-18T01:43:21;19.60;;;17.57;;
787;SDS011;16074;42.708;23.312;2023-09-18T01:45:50;18.53;;;16.87;;
787;SDS011;16074;42.708;23.312;2023-09-18T01:48:18;18.67;;;16.97;;
787;SDS011;16074;42.708;23.312;2023-09-18T01:50:47;19.27;;;17.07;;
787;SDS011;16074;42.708;23.312;2023-09-18T01:53:15;19.77;;;17.67;;
787;SDS011;16074;42.708;23.312;2023-09-18T01:55:44;19.63;;;17.87;;
787;SDS011;16074;42.708;23.312;2023-09-18T01:58:15;18.53;;;16.83;;
787;SDS011;16074;42.708;23.312;2023-09-18T02:00:44;18.97;;;17.27;;
787;SDS011;16074;42.708;23.312;2023-09-18T02:03:12;19.90;;;18.00;;
787;SDS011;16074;42.708;23.312;2023-09-18T02:06:01;20.80;;;18.80;;
787;SDS011;16074;42.708;23.312;2023-09-18T02:08:30;21.33;;;19.00;;
787;SDS011;16074;42.708;23.312;2023-09-18T02:10:58;22.10;;;19.90;;
787;SDS011;16074;42.708;23.312;2023-09-18T02:13:28;21.83;;;19.87;;
787;SDS011;16074;42.708;23.312;2023-09-18T02:15:56;25.13;;;22.63;;
787;SDS011;16074;42.708;23.312;2023-09-18T02:18:25;23.17;;;20.80;;
787;SDS011;16074;42.708;23.312;2023-09-18T02:20:53;24.90;;;22.60;;
787;SDS011;16074;42.708;23.312;2023-09-18T02:23:21;22.70;;;20.50;;
787;SDS011;16074;42.708;23.312;2023-09-18T02:25:55;22.37;;;20.27;;
787;SDS011;16074;42.708;23.312;2023-09-18T02:28:24;24.83;;;22.43;;
787;SDS011;16074;42.708;23.312;2023-09-18T02:30:54;22.43;;;20.07;;
787;SDS011;16074;42.708;23.312;2023-09-18T02:33:22;22.50;;;20.30;;
787;SDS011;16074;42.708;23.312;2023-09-18T02:35:50;24.17;;;21.63;;
787;SDS011;16074;42.708;23.312;2023-09-18T02:38:19;21.87;;;19.70;;
787;SDS011;16074;42.708;23.312;2023-09-18T02:41:04;20.50;;;18.60;;
787;SDS011;16074;42.708;23.312;2023-09-18T02:43:33;18.63;;;16.73;;
787;SDS011;16074;42.708;23.312;2023-09-18T02:46:02;19.10;;;17.40;;
787;SDS011;16074;42.708;23.312;2023-09-18T02:48:31;19.17;;;17.40;;
787;SDS011;16074;42.708;23.312;2023-09-18T02:51:00;19.80;;;18.00;;
787;SDS011;16074;42.708;23.312;2023-09-18T02:53:29;20.00;;;17.33;;
787;SDS011;16074;42.708;23.312;2023-09-18T02:55:58;18.60;;;16.70;;
787;SDS011;16074;42.708;23.312;2023-09-18T02:58:27;18.33;;;16.43;;
787;SDS011;16074;42.708;23.312;2023-09-18T03:00:57;18.20;;;16.60;;
787;SDS011;16074;42.708;23.312;2023-09-18T03:03:29;18.20;;;16.47;;
787;SDS011;16074;42.708;23.312;2023-09-18T03:06:01;17.73;;;16.10;;
787;SDS011;16074;42.708;23.312;2023-09-18T03:08:31;16.93;;;15.33;;
787;SDS011;16074;42.708;23.312;2023-09-18T03:11:00;17.27;;;15.70;;
787;SDS011;16074;42.708;23.312;2023-09-18T03:13:30;16.73;;;15.07;;
787;SDS011;16074;42.708;23.312;2023-09-18T03:15:59;15.97;;;14.67;;
787;SDS011;16074;42.708;23.312;2023-09-18T03:18:28;17.47;;;14.43;;
787;SDS011;16074;42.708;23.312;2023-09-18T03:20:57;16.33;;;14.80;;
787;SDS011;16074;42.708;23.312;2023-09-18T03:23:27;16.67;;;15.17;;
787;SDS011;16074;42.708;23.312;2023-09-18T03:25:56;17.43;;;15.60;;
787;SDS011;16074;42.708;23.312;2023-09-18T03:28:26;16.90;;;15.33;;
787;SDS011;16074;42.708;23.312;2023-09-18T03:30:55;18.70;;;16.80;;
787;SDS011;16074;42.708;23.312;2023-09-18T03:33:25;19.23;;;17.33;;
787;SDS011;16074;42.708;23.312;2023-09-18T03:35:55;20.47;;;18.17;;
787;SDS011;16074;42.708;23.312;2023-09-18T03:38:28;20.87;;;18.90;;
787;SDS011;16074;42.708;23.312;2023-09-18T03:40:59;22.10;;;20.00;;
787;SDS011;16074;42.708;23.312;2023-09-18T03:43:28;20.37;;;18.27;;
787;SDS011;16074;42.708;23.312;2023-09-18T03:46:02;21.50;;;19.53;;
787;SDS011;16074;42.708;23.312;2023-09-18T03:48:35;23.13;;;19.80;;
787;SDS011;16074;42.708;23.312;2023-09-18T03:51:06;22.73;;;20.43;;
787;SDS011;16074;42.708;23.312;2023-09-18T03:53:35;22.87;;;20.37;;
787;SDS011;16074;42.708;23.312;2023-09-18T03:56:03;22.97;;;20.70;;
787;SDS011;16074;42.708;23.312;2023-09-18T03:58:32;26.33;;;22.47;;
787;SDS011;16074;42.708;23.312;2023-09-18T04:01:02;23.90;;;21.60;;
787;SDS011;16074;42.708;23.312;2023-09-18T04:03:31;25.47;;;22.93;;
787;SDS011;16074;42.708;23.312;2023-09-18T04:05:59;26.10;;;23.50;;
787;SDS011;16074;42.708;23.312;2023-09-18T04:08:30;27.80;;;24.60;;
787;SDS011;16074;42.708;23.312;2023-09-18T04:11:00;26.80;;;22.87;;
787;SDS011;16074;42.708;23.312;2023-09-18T04:13:31;28.03;;;23.30;;
787;SDS011;16074;42.708;23.312;2023-09-18T04:16:00;25.87;;;23.27;;
787;SDS011;16074;42.708;23.312;2023-09-18T04:18:31;24.93;;;22.37;;
787;SDS011;16074;42.708;23.312;2023-09-18T04:20:59;26.27;;;23.53;;
787;SDS011;16074;42.708;23.312;2023-09-18T04:23:28;28.70;;;23.53;;
787;SDS011;16074;42.708;23.312;2023-09-18T04:25:58;24.37;;;21.20;;
787;SDS011;16074;42.708;23.312;2023-09-18T04:28:28;27.87;;;22.50;;
787;SDS011;16074;42.708;23.312;2023-09-18T04:30:58;23.80;;;21.23;;
787;SDS011;16074;42.708;23.312;2023-09-18T04:33:26;24.70;;;22.40;;
787;SDS011;16074;42.708;23.312;2023-09-18T04:35:56;22.47;;;20.23;;
787;SDS011;16074;42.708;23.312;2023-09-18T04:38:25;24.93;;;20.80;;
787;SDS011;16074;42.708;23.312;2023-09-18T04:40:58;23.03;;;20.53;;
787;SDS011;16074;42.708;23.312;2023-09-18T04:43:28;23.03;;;20.67;;
787;SDS011;16074;42.708;23.312;2023-09-18T04:45:58;22.80;;;20.33;;
787;SDS011;16074;42.708;23.312;2023-09-18T04:48:27;25.23;;;21.00;;
787;SDS011;16074;42.708;23.312;2023-09-18T04:50:56;22.77;;;20.40;;
787;SDS011;16074;42.708;23.312;2023-09-18T04:53:26;23.73;;;21.20;;
787;SDS011;16074;42.708;23.312;2023-09-18T04:55:55;24.63;;;22.10;;
787;SDS011;16074;42.708;23.312;2023-09-18T04:58:26;26.73;;;22.60;;
787;SDS011;16074;42.708;23.312;2023-09-18T05:00:55;23.77;;;21.37;;
787;SDS011;16074;42.708;23.312;2023-09-18T05:03:24;21.97;;;19.67;;
787;SDS011;16074;42.708;23.312;2023-09-18T05:05:53;22.53;;;19.67;;
787;SDS011;16074;42.708;23.312;2023-09-18T05:08:22;24.40;;;21.80;;
787;SDS011;16074;42.708;23.312;2023-09-18T05:10:50;22.80;;;20.47;;
787;SDS011;16074;42.708;23.312;2023-09-18T05:13:19;27.83;;;22.90;;
787;SDS011;16074;42.708;23.312;2023-09-18T05:15:48;22.87;;;20.50;;
787;SDS011;16074;42.708;23.312;2023-09-18T05:18:17;23.53;;;21.03;;
787;SDS011;16074;42.708;23.312;2023-09-18T05:20:45;22.77;;;20.47;;
787;SDS011;16074;42.708;23.312;2023-09-18T05:23:13;24.47;;;20.33;;
787;SDS011;16074;42.708;23.312;2023-09-18T05:25:44;19.97;;;18.07;;
787;SDS011;16074;42.708;23.312;2023-09-18T05:28:13;19.63;;;16.90;;
787;SDS011;16074;42.708;23.312;2023-09-18T05:30:41;19.67;;;17.63;;
787;SDS011;16074;42.708;23.312;2023-09-18T05:33:11;23.53;;;18.77;;
787;SDS011;16074;42.708;23.312;2023-09-18T05:35:41;25.10;;;18.67;;
787;SDS011;16074;42.708;23.312;2023-09-18T05:38:10;20.87;;;18.83;;
787;SDS011;16074;42.708;23.312;2023-09-18T05:40:40;21.33;;;19.23;;
787;SDS011;16074;42.708;23.312;2023-09-18T05:43:10;23.10;;;20.67;;
787;SDS011;16074;42.708;23.312;2023-09-18T05:45:39;22.80;;;20.40;;
787;SDS011;16074;42.708;23.312;2023-09-18T05:48:07;22.60;;;20.30;;
787;SDS011;16074;42.708;23.312;2023-09-18T05:50:37;20.47;;;18.37;;
787;SDS011;16074;42.708;23.312;2023-09-18T05:53:08;22.70;;;20.00;;
787;SDS011;16074;42.708;23.312;2023-09-18T05:55:36;25.40;;;20.30;;
787;SDS011;16074;42.708;23.312;2023-09-18T05:58:05;25.13;;;22.57;;
787;SDS011;16074;42.708;23.312;2023-09-18T06:00:34;25.43;;;22.03;;
787;SDS011;16074;42.708;23.312;2023-09-18T06:03:03;20.67;;;18.63;;
787;SDS011;16074;42.708;23.312;2023-09-18T06:05:33;20.70;;;18.50;;
787;SDS011;16074;42.708;23.312;2023-09-18T06:08:04;23.90;;;21.40;;
787;SDS011;16074;42.708;23.312;2023-09-18T06:10:32;21.70;;;19.50;;
787;SDS011;16074;42.708;23.312;2023-09-18T06:13:01;21.00;;;18.83;;
787;SDS011;16074;42.708;23.312;2023-09-18T06:15:32;21.43;;;17.93;;
787;SDS011;16074;42.708;23.312;2023-09-18T06:18:01;20.67;;;18.47;;
787;SDS011;16074;42.708;23.312;2023-09-18T06:20:31;20.17;;;17.97;;
787;SDS011;16074;42.708;23.312;2023-09-18T06:22:59;19.23;;;17.20;;
787;SDS011;16074;42.708;23.312;2023-09-18T06:25:29;20.50;;;18.40;;
787;SDS011;16074;42.708;23.312;2023-09-18T06:27:58;18.47;;;15.90;;
787;SDS011;16074;42.708;23.312;2023-09-18T06:30:27;15.80;;;14.20;;
787;SDS011;16074;42.708;23.312;2023-09-18T06:32:57;20.33;;;17.70;;
787;SDS011;16074;42.708;23.312;2023-09-18T06:35:26;18.47;;;16.57;;
787;SDS011;16074;42.708;23.312;2023-09-18T06:37:54;18.23;;;16.33;;
787;SDS011;16074;42.708;23.312;2023-09-18T06:40:25;16.37;;;14.67;;
787;SDS011;16074;42.708;23.312;2023-09-18T06:42:59;15.27;;;13.77;;
787;SDS011;16074;42.708;23.312;2023-09-18T06:45:27;16.67;;;14.97;;
787;SDS011;16074;42.708;23.312;2023-09-18T06:47:56;16.93;;;15.17;;
787;SDS011;16074;42.708;23.312;2023-09-18T06:50:24;19.53;;;17.37;;
787;SDS011;16074;42.708;23.312;2023-09-18T06:52:53;19.43;;;17.40;;
787;SDS011;16074;42.708;23.312;2023-09-18T06:55:21;19.33;;;17.57;;
787;SDS011;16074;42.708;23.312;2023-09-18T06:57:50;15.90;;;14.00;;
787;SDS011;16074;42.708;23.312;2023-09-18T07:00:20;19.40;;;17.30;;
787;SDS011;16074;42.708;23.312;2023-09-18T07:02:49;18.97;;;17.00;;
787;SDS011;16074;42.708;23.312;2023-09-18T07:05:17;17.53;;;15.77;;
787;SDS011;16074;42.708;23.312;2023-09-18T07:07:46;17.57;;;15.93;;
787;SDS011;16074;42.708;23.312;2023-09-18T07:10:14;17.20;;;15.50;;
787;SDS011;16074;42.708;23.312;2023-09-18T07:12:43;18.57;;;16.67;;
787;SDS011;16074;42.708;23.312;2023-09-18T07:15:11;16.00;;;14.30;;
787;SDS011;16074;42.708;23.312;2023-09-18T07:17:41;18.33;;;16.67;;
787;SDS011;16074;42.708;23.312;2023-09-18T07:20:10;18.60;;;16.90;;
787;SDS011;16074;42.708;23.312;2023-09-18T07:22:46;18.50;;;16.70;;
787;SDS011;16074;42.708;23.312;2023-09-18T07:25:15;17.90;;;16.33;;
787;SDS011;16074;42.708;23.312;2023-09-18T07:27:44;19.17;;;17.37;;
787;SDS011;16074;42.708;23.312;2023-09-18T07:30:12;18.20;;;16.50;;
787;SDS011;16074;42.708;23.312;2023-09-18T07:32:45;18.13;;;16.20;;
787;SDS011;16074;42.708;23.312;2023-09-18T07:35:14;17.27;;;15.77;;
787;SDS011;16074;42.708;23.312;2023-09-18T07:37:43;19.30;;;17.50;;
787;SDS011;16074;42.708;23.312;2023-09-18T07:40:13;17.80;;;16.00;;
787;SDS011;16074;42.708;23.312;2023-09-18T07:42:43;17.57;;;16.07;;
787;SDS011;16074;42.708;23.312;2023-09-18T07:45:12;20.90;;;18.80;;
787;SDS011;16074;42.708;23.312;2023-09-18T07:47:41;21.07;;;18.77;;
787;SDS011;16074;42.708;23.312;2023-09-18T07:50:10;18.83;;;17.20;;
787;SDS011;16074;42.708;23.312;2023-09-18T07:52:39;17.97;;;16.27;;
787;SDS011;16074;42.708;23.312;2023-09-18T07:55:07;17.57;;;16.17;;
787;SDS011;16074;42.708;23.312;2023-09-18T07:57:36;16.83;;;15.33;;
787;SDS011;16074;42.708;23.312;2023-09-18T08:00:05;16.90;;;15.17;;
787;SDS011;16074;42.708;23.312;2023-09-18T08:02:39;16.70;;;15.20;;
787;SDS011;16074;42.708;23.312;2023-09-18T08:05:11;17.33;;;15.93;;
787;SDS011;16074;42.708;23.312;2023-09-18T08:07:40;17.63;;;15.97;;
787;SDS011;16074;42.708;23.312;2023-09-18T08:10:08;18.70;;;15.10;;
787;SDS011;16074;42.708;23.312;2023-09-18T08:12:37;15.70;;;14.23;;
787;SDS011;16074;42.708;23.312;2023-09-18T08:15:06;15.87;;;14.47;;
787;SDS011;16074;42.708;23.312;2023-09-18T08:17:36;16.37;;;15.00;;
787;SDS011;16074;42.708;23.312;2023-09-18T08:20:05;15.80;;;14.40;;
787;SDS011;16074;42.708;23.312;2023-09-18T08:22:41;15.00;;;13.87;;
787;SDS011;16074;42.708;23.312;2023-09-18T08:25:10;14.97;;;13.63;;
787;SDS011;16074;42.708;23.312;2023-09-18T08:27:40;16.03;;;14.60;;
787;SDS011;16074;42.708;23.312;2023-09-18T08:30:12;14.67;;;13.47;;
787;SDS011;16074;42.708;23.312;2023-09-18T08:32:41;15.97;;;14.67;;
787;SDS011;16074;42.708;23.312;2023-09-18T08:35:10;14.93;;;13.73;;
787;SDS011;16074;42.708;23.312;2023-09-18T08:37:41;14.60;;;13.40;;
787;SDS011;16074;42.708;23.312;2023-09-18T08:40:10;13.97;;;12.77;;
787;SDS011;16074;42.708;23.312;2023-09-18T08:42:44;15.47;;;13.97;;
787;SDS011;16074;42.708;23.312;2023-09-18T08:45:15;13.93;;;12.53;;
787;SDS011;16074;42.708;23.312;2023-09-18T08:47:49;13.30;;;12.20;;
787;SDS011;16074;42.708;23.312;2023-09-18T08:50:20;12.63;;;11.43;;
787;SDS011;16074;42.708;23.312;2023-09-18T08:52:51;18.00;;;13.17;;
787;SDS011;16074;42.708;23.312;2023-09-18T08:55:19;14.47;;;13.30;;
787;SDS011;16074;42.708;23.312;2023-09-18T08:57:49;15.80;;;14.40;;
787;SDS011;16074;42.708;23.312;2023-09-18T09:00:17;14.00;;;12.80;;
787;SDS011;16074;42.708;23.312;2023-09-18T09:02:46;13.50;;;12.40;;
787;SDS011;16074;42.708;23.312;2023-09-18T09:05:16;17.30;;;15.70;;
787;SDS011;16074;42.708;23.312;2023-09-18T09:07:44;13.23;;;11.83;;
787;SDS011;16074;42.708;23.312;2023-09-18T09:10:14;14.47;;;13.23;;
787;SDS011;16074;42.708;23.312;2023-09-18T09:12:52;13.33;;;11.93;;
787;SDS011;16074;42.708;23.312;2023-09-18T09:15:23;12.07;;;11.17;;
787;SDS011;16074;42.708;23.312;2023-09-18T09:18:02;14.70;;;13.30;;
787;SDS011;16074;42.708;23.312;2023-09-18T09:20:32;13.57;;;12.33;;
787;SDS011;16074;42.708;23.312;2023-09-18T09:23:03;15.20;;;13.87;;
787;SDS011;16074;42.708;23.312;2023-09-18T09:25:35;12.70;;;11.60;;
787;SDS011;16074;42.708;23.312;2023-09-18T09:28:04;10.77;;;9.63;;
787;SDS011;16074;42.708;23.312;2023-09-18T09:30:34;11.53;;;10.43;;
787;SDS011;16074;42.708;23.312;2023-09-18T09:33:04;14.60;;;11.53;;
787;SDS011;16074;42.708;23.312;2023-09-18T09:35:34;13.97;;;11.97;;
787;SDS011;16074;42.708;23.312;2023-09-18T09:38:07;14.67;;;13.40;;
787;SDS011;16074;42.708;23.312;2023-09-18T09:40:39;13.67;;;12.20;;
787;SDS011;16074;42.708;23.312;2023-09-18T09:43:08;13.50;;;12.10;;
787;SDS011;16074;42.708;23.312;2023-09-18T09:45:40;12.40;;;11.30;;
787;SDS011;16074;42.708;23.312;2023-09-18T09:48:09;13.17;;;11.97;;
787;SDS011;16074;42.708;23.312;2023-09-18T09:50:43;13.37;;;12.37;;
787;SDS011;16074;42.708;23.312;2023-09-18T09:53:14;12.77;;;11.67;;
787;SDS011;16074;42.708;23.312;2023-09-18T09:55:44;11.50;;;10.60;;
787;SDS011;16074;42.708;23.312;2023-09-18T09:58:12;12.23;;;11.33;;
787;SDS011;16074;42.708;23.312;2023-09-18T10:00:42;12.60;;;11.60;;
787;SDS011;16074;42.708;23.312;2023-09-18T10:03:15;13.03;;;11.80;;
787;SDS011;16074;42.708;23.312;2023-09-18T10:05:45;11.90;;;10.90;;
787;SDS011;16074;42.708;23.312;2023-09-18T10:08:16;12.97;;;11.93;;
787;SDS011;16074;42.708;23.312;2023-09-18T10:10:47;15.27;;;11.13;;
787;SDS011;16074;42.708;23.312;2023-09-18T10:13:18;11.43;;;10.50;;
787;SDS011;16074;42.708;23.312;2023-09-18T10:15:52;10.97;;;10.13;;
787;SDS011;16074;42.708;23.312;2023-09-18T10:18:22;10.87;;;9.97;;
787;SDS011;16074;42.708;23.312;2023-09-18T10:20:56;11.43;;;10.33;;
787;SDS011;16074;42.708;23.312;2023-09-18T10:23:35;12.10;;;11.03;;
787;SDS011;16074;42.708;23.312;2023-09-18T10:26:15;11.90;;;10.90;;
787;SDS011;16074;42.708;23.312;2023-09-18T10:28:51;10.60;;;9.80;;
787;SDS011;16074;42.708;23.312;2023-09-18T10:31:26;11.00;;;10.00;;
787;SDS011;16074;42.708;23.312;2023-09-18T10:33:56;9.67;;;8.97;;
787;SDS011;16074;42.708;23.312;2023-09-18T10:36:25;10.00;;;9.10;;
787;SDS011;16074;42.708;23.312;2023-09-18T10:38:54;10.03;;;9.30;;
787;SDS011;16074;42.708;23.312;2023-09-18T10:41:25;9.00;;;8.40;;
787;SDS011;16074;42.708;23.312;2023-09-18T10:43:54;9.40;;;8.50;;
787;SDS011;16074;42.708;23.312;2023-09-18T10:46:24;10.53;;;9.70;;
787;SDS011;16074;42.708;23.312;2023-09-18T10:48:53;9.20;;;8.60;;
787;SDS011;16074;42.708;23.312;2023-09-18T10:51:23;8.80;;;8.30;;
787;SDS011;16074;42.708;23.312;2023-09-18T10:53:52;9.37;;;8.53;;
787;SDS011;16074;42.708;23.312;2023-09-18T10:56:20;9.33;;;8.60;;
787;SDS011;16074;42.708;23.312;2023-09-18T10:58:56;10.30;;;9.60;;
787;SDS011;16074;42.708;23.312;2023-09-18T11:01:27;8.60;;;7.80;;
787;SDS011;16074;42.708;23.312;2023-09-18T11:03:59;8.67;;;7.90;;
787;SDS011;16074;42.708;23.312;2023-09-18T11:06:30;8.77;;;8.20;;
787;SDS011;16074;42.708;23.312;2023-09-18T11:09:19;8.93;;;8.33;;
787;SDS011;16074;42.708;23.312;2023-09-18T11:11:52;8.87;;;8.27;;
787;SDS011;16074;42.708;23.312;2023-09-18T11:14:29;8.83;;;8.23;;
787;SDS011;16074;42.708;23.312;2023-09-18T11:20:04;8.20;;;7.70;;
787;SDS011;16074;42.708;23.312;2023-09-18T11:22:36;8.33;;;7.80;;
787;SDS011;16074;42.708;23.312;2023-09-18T11:28:01;9.33;;;8.63;;
787;SDS011;16074;42.708;23.312;2023-09-18T11:30:32;9.67;;;8.90;;
787;SDS011;16074;42.708;23.312;2023-09-18T11:33:02;8.97;;;8.37;;
787;SDS011;16074;42.708;23.312;2023-09-18T11:35:32;9.77;;;8.47;;
787;SDS011;16074;42.708;23.312;2023-09-18T11:38:04;9.57;;;8.73;;
787;SDS011;16074;42.708;23.312;2023-09-18T11:40:35;8.30;;;7.80;;
787;SDS011;16074;42.708;23.312;2023-09-18T11:43:23;7.17;;;6.57;;
787;SDS011;16074;42.708;23.312;2023-09-18T11:45:58;7.97;;;7.47;;
787;SDS011;16074;42.708;23.312;2023-09-18T11:48:28;8.00;;;7.40;;
787;SDS011;16074;42.708;23.312;2023-09-18T11:51:00;8.73;;;8.03;;
787;SDS011;16074;42.708;23.312;2023-09-18T11:53:32;7.87;;;7.30;;
787;SDS011;16074;42.708;23.312;2023-09-18T11:56:05;7.90;;;7.20;;
787;SDS011;16074;42.708;23.312;2023-09-18T11:58:45;7.70;;;7.00;;
787;SDS011;16074;42.708;23.312;2023-09-18T12:01:15;8.30;;;7.60;;
787;SDS011;16074;42.708;23.312;2023-09-18T12:03:44;8.30;;;7.60;;
787;SDS011;16074;42.708;23.312;2023-09-18T12:06:13;8.00;;;7.00;;
787;SDS011;16074;42.708;23.312;2023-09-18T12:08:42;8.47;;;7.87;;
787;SDS011;16074;42.708;23.312;2023-09-18T12:11:11;8.70;;;7.93;;
787;SDS011;16074;42.708;23.312;2023-09-18T12:13:46;7.80;;;7.20;;
787;SDS011;16074;42.708;23.312;2023-09-18T12:16:16;8.50;;;7.70;;
787;SDS011;16074;42.708;23.312;2023-09-18T12:18:45;8.43;;;7.50;;
787;SDS011;16074;42.708;23.312;2023-09-18T12:21:16;8.13;;;7.47;;
787;SDS011;16074;42.708;23.312;2023-09-18T12:23:45;8.50;;;7.90;;
787;SDS011;16074;42.708;23.312;2023-09-18T12:26:14;7.03;;;6.63;;
787;SDS011;16074;42.708;23.312;2023-09-18T12:28:44;7.00;;;6.30;;
787;SDS011;16074;42.708;23.312;2023-09-18T12:31:13;8.40;;;7.80;;
787;SDS011;16074;42.708;23.312;2023-09-18T12:33:43;8.10;;;7.50;;
787;SDS011;16074;42.708;23.312;2023-09-18T12:36:18;7.07;;;6.60;;
787;SDS011;16074;42.708;23.312;2023-09-18T12:38:54;8.40;;;7.80;;
787;SDS011;16074;42.708;23.312;2023-09-18T12:41:24;7.73;;;7.23;;
787;SDS011;16074;42.708;23.312;2023-09-18T12:43:58;7.50;;;6.57;;
787;SDS011;16074;42.708;23.312;2023-09-18T12:46:27;8.20;;;7.50;;
787;SDS011;16074;42.708;23.312;2023-09-18T12:48:59;7.77;;;7.17;;
787;SDS011;16074;42.708;23.312;2023-09-18T12:51:30;9.20;;;6.83;;
787;SDS011;16074;42.708;23.312;2023-09-18T12:53:59;6.50;;;6.10;;
787;SDS011;16074;42.708;23.312;2023-09-18T12:56:39;7.33;;;6.83;;
787;SDS011;16074;42.708;23.312;2023-09-18T12:59:08;7.97;;;7.37;;
787;SDS011;16074;42.708;23.312;2023-09-18T13:01:45;6.97;;;6.37;;
787;SDS011;16074;42.708;23.312;2023-09-18T13:04:17;7.23;;;6.73;;
787;SDS011;16074;42.708;23.312;2023-09-18T13:06:47;8.40;;;7.90;;
787;SDS011;16074;42.708;23.312;2023-09-18T13:09:15;8.77;;;8.17;;
787;SDS011;16074;42.708;23.312;2023-09-18T13:11:53;8.33;;;7.53;;
787;SDS011;16074;42.708;23.312;2023-09-18T13:14:23;7.97;;;7.27;;
787;SDS011;16074;42.708;23.312;2023-09-18T13:16:51;7.50;;;6.87;;
787;SDS011;16074;42.708;23.312;2023-09-18T13:19:21;8.10;;;7.30;;
787;SDS011;16074;42.708;23.312;2023-09-18T13:21:50;8.10;;;7.50;;
787;SDS011;16074;42.708;23.312;2023-09-18T13:24:25;8.17;;;7.53;;
787;SDS011;16074;42.708;23.312;2023-09-18T13:26:55;8.10;;;7.47;;
787;SDS011;16074;42.708;23.312;2023-09-18T13:29:25;8.70;;;8.00;;
787;SDS011;16074;42.708;23.312;2023-09-18T13:31:54;8.27;;;7.77;;
787;SDS011;16074;42.708;23.312;2023-09-18T13:34:24;9.37;;;8.67;;
787;SDS011;16074;42.708;23.312;2023-09-18T13:36:52;9.63;;;8.10;;
787;SDS011;16074;42.708;23.312;2023-09-18T13:39:20;8.70;;;8.10;;
787;SDS011;16074;42.708;23.312;2023-09-18T13:41:48;7.87;;;7.27;;
787;SDS011;16074;42.708;23.312;2023-09-18T13:44:17;7.90;;;7.30;;
787;SDS011;16074;42.708;23.312;2023-09-18T13:46:48;7.70;;;7.07;;
787;SDS011;16074;42.708;23.312;2023-09-18T13:49:16;7.53;;;7.00;;
787;SDS011;16074;42.708;23.312;2023-09-18T13:51:46;7.40;;;6.90;;
787;SDS011;16074;42.708;23.312;2023-09-18T13:54:17;7.23;;;6.83;;
787;SDS011;16074;42.708;23.312;2023-09-18T13:56:45;7.37;;;6.87;;
787;SDS011;16074;42.708;23.312;2023-09-18T13:59:14;7.43;;;6.87;;
787;SDS011;16074;42.708;23.312;2023-09-18T14:01:42;8.03;;;7.53;;
787;SDS011;16074;42.708;23.312;2023-09-18T14:04:11;7.97;;;7.33;;
787;SDS011;16074;42.708;23.312;2023-09-18T14:06:39;6.60;;;6.20;;
787;SDS011;16074;42.708;23.312;2023-09-18T14:09:10;7.40;;;6.83;;
787;SDS011;16074;42.708;23.312;2023-09-18T14:11:39;7.23;;;6.63;;
787;SDS011;16074;42.708;23.312;2023-09-18T14:14:07;7.70;;;7.00;;
787;SDS011;16074;42.708;23.312;2023-09-18T14:16:36;6.87;;;6.47;;
787;SDS011;16074;42.708;23.312;2023-09-18T14:19:04;7.57;;;7.03;;
787;SDS011;16074;42.708;23.312;2023-09-18T14:21:32;6.97;;;6.37;;
787;SDS011;16074;42.708;23.312;2023-09-18T14:24:00;8.23;;;7.60;;
787;SDS011;16074;42.708;23.312;2023-09-18T14:26:30;8.10;;;6.40;;
787;SDS011;16074;42.708;23.312;2023-09-18T14:29:00;7.93;;;7.33;;
787;SDS011;16074;42.708;23.312;2023-09-18T14:31:28;7.37;;;6.87;;
787;SDS011;16074;42.708;23.312;2023-09-18T14:33:57;7.40;;;6.93;;
787;SDS011;16074;42.708;23.312;2023-09-18T14:36:26;7.50;;;6.90;;
787;SDS011;16074;42.708;23.312;2023-09-18T14:38:56;8.50;;;7.80;;
787;SDS011;16074;42.708;23.312;2023-09-18T14:41:24;8.10;;;7.50;;
787;SDS011;16074;42.708;23.312;2023-09-18T14:43:54;7.47;;;6.97;;
787;SDS011;16074;42.708;23.312;2023-09-18T14:46:24;7.30;;;6.80;;
787;SDS011;16074;42.708;23.312;2023-09-18T14:48:52;8.40;;;7.60;;
787;SDS011;16074;42.708;23.312;2023-09-18T14:51:21;8.40;;;7.80;;
787;SDS011;16074;42.708;23.312;2023-09-18T14:53:50;11.67;;;7.40;;
787;SDS011;16074;42.708;23.312;2023-09-18T14:56:18;7.67;;;7.07;;
787;SDS011;16074;42.708;23.312;2023-09-18T14:58:46;7.13;;;6.63;;
787;SDS011;16074;42.708;23.312;2023-09-18T15:01:16;9.30;;;8.70;;
787;SDS011;16074;42.708;23.312;2023-09-18T15:03:44;9.20;;;8.20;;
787;SDS011;16074;42.708;23.312;2023-09-18T15:06:13;7.27;;;6.77;;